• Join FlightAware (Why Join?)
  • Login
  • US Flag 
02:30AM EDT


 

Airport Tracker/Info


-or-


 

Live Flight TrackerFlight Track Log ✈ AAL1491 ✈ 16-May-2013 ✈ KDFW - KSFO

Flight Track Log - Related Links

Times and Time Zones

All times are in EDT time to prevent confusion due to time zone crossing. See the AAL1491 flight status page for this flight to view local times or setup timezone preferences in your user account.

Time Position Orientation Groundspeed Altitude Reporting Facility
EDT Latitude Longitude Course Direction KTS MPH feet Rate Location/Type
04:56PM 32.8640 -97.0510 183° South 191 220 2,200  Level FlightAware
04:56PM 32.8470 -97.0550 191° South 221 254 2,600 2,220 Climbing FlightAware
04:56PM 32.8200 -97.0650 197° South 240 276 3,700 2,820 Climbing FlightAware
04:57PM 32.7880 -97.0780 199° South 251 289 5,200 2,880 Climbing FlightAware
04:57PM 32.7760 -97.0930 226° Southwest 249 287 5,900 2,760 Climbing FlightAware
04:57PM 32.7700 -97.1110 248° West 246 283 6,600 2,820 Climbing FlightAware
04:58PM 32.7660 -97.1450 262° West 249 287 7,800 2,460 Climbing FlightAware
04:58PM 32.7680 -97.1870 273° West 262 302 8,900 1,620 Climbing FlightAware
04:59PM 32.7700 -97.2220 274° West 265 305 9,300 1,020 Climbing FlightAware
04:59PM 32.7770 -97.2520 286° West 266 306 9,700 1,260 Climbing FlightAware
05:00PM 32.7990 -97.3050 296° West 288 331 10,600 1,680 Climbing FlightAware
05:00PM 32.8270 -97.3710 297° West 315 362 12,100 2,400 Climbing FlightAware
05:01PM 32.8540 -97.4360 296° West 325 374 14,000 2,580 Climbing FlightAware
05:02PM 32.8820 -97.5010 297° West 336 387 15,600 2,460 Climbing FlightAware
05:02PM 32.9130 -97.5740 297° West 343 395 17,500 2,400 Climbing FlightAware
05:03PM 32.9400 -97.6380 297° West 349 402 19,000 2,160 Climbing FlightAware
05:04PM 32.9790 -97.7370 295° West 363 418 21,000 2,220 Climbing FlightAware
05:05PM 33.0140 -97.8220 296° West 366 421 22,700 1,920 Climbing FlightAware
05:05PM 33.0430 -97.8930 296° West 379 436 23,800 1,740 Climbing FlightAware
05:06PM 33.0790 -97.9820 296° West 386 444 25,200 1,020 Climbing FlightAware
05:07PM 33.1020 -98.0410 295° West 386 444 25,200 1,200 Level FlightAware
05:08PM 33.1520 -98.1620 296° West 399 459 27,100 1,140 Climbing FlightAware
05:08PM 33.1780 -98.2300 295° West 399 459 27,100 1,380 Level FlightAware
05:09PM 33.2170 -98.3230 297° West 411 473 29,000 1,380 Climbing FlightAware
05:10PM 33.2440 -98.3930 295° West 411 473 29,000  Level FlightAware
05:11PM 33.2780 -98.4800 295° West 411 473 29,000  Level FlightAware
05:11PM 33.3050 -98.5500 295° West 411 473 29,000  Level FlightAware
05:12PM 33.3330 -98.6210 295° West 411 473 29,000  Level FlightAware
05:13PM 33.3600 -98.6910 295° West 411 473 29,000 5,400 Level FlightAware
05:13PM 33.4100 -98.8044 295° West 420 483 34,000 3,960 Climbing Fort Worth Center
05:14PM 33.4608 -98.9272 296° West 420 483 34,000  Level Fort Worth Center
05:15PM 33.5094 -99.0528 295° West 420 483 34,000  Level Fort Worth Center
05:16PM 33.5578 -99.1758 295° West 420 483 34,000  Level Fort Worth Center
05:17PM 33.6081 -99.3014 296° West 420 483 34,000  Level Fort Worth Center
05:18PM 33.6542 -99.4247 294° West 414 476 34,000  Level Fort Worth Center
05:19PM 33.7042 -99.5508 296° West 414 476 34,000  Level Fort Worth Center
05:20PM 33.7500 -99.6767 294° West 419 482 34,000  Level Fort Worth Center
05:21PM 33.7978 -99.8006 295° West 419 482 34,000  Level Fort Worth Center
05:22PM 33.8475 -99.9244 296° West 419 482 34,000  Level Fort Worth Center
05:23PM 33.8972 -100.0508 295° West 419 482 34,000  Level Fort Worth Center
05:24PM 33.9444 -100.1800 294° West 419 482 34,000  Level Fort Worth Center
05:25PM 33.9939 -100.3044 296° West 419 482 34,000  Level Fort Worth Center
05:26PM 34.0408 -100.4336 294° West 419 482 34,000  Level Fort Worth Center
05:27PM 34.0900 -100.5558 296° West 419 482 34,000  Level Fort Worth Center
05:28PM 34.1367 -100.6856 294° West 419 482 34,000  Level Fort Worth Center
05:29PM 34.1875 -100.8156 295° West 419 482 34,000  Level Fort Worth Center
05:30PM 34.2319 -100.9453 293° West 419 482 34,000  Level Fort Worth Center
05:32PM 34.3253 -101.1947 294° West 420 483 34,000  Level Albuquerque Center
05:33PM 34.3728 -101.3228 294° West 418 481 34,000  Level Albuquerque Center
05:34PM 34.4208 -101.4522 294° West 419 482 34,000  Level Albuquerque Center
05:35PM 34.4681 -101.5828 294° West 422 486 34,000  Level Albuquerque Center
05:36PM 34.5250 -101.7417 294° West 425 489 34,000 420 Level Albuquerque Center
05:37PM 34.5736 -101.8756 294° West 430 495 34,900 960 Climbing Albuquerque Center
05:38PM 34.6197 -102.0069 293° West 425 489 36,000 960 Climbing Albuquerque Center
05:39PM 34.6669 -102.1375 294° West 422 486 36,900 780 Climbing Albuquerque Center
05:40PM 34.7142 -102.2689 294° West 422 486 37,700 480 Climbing Albuquerque Center
05:41PM 34.7600 -102.3997 293° West 421 484 38,000 120 Climbing Albuquerque Center
05:42PM 34.8072 -102.5306 294° West 421 484 38,000  Level Albuquerque Center
05:43PM 34.8636 -102.6875 294° West 421 484 38,000  Level Albuquerque Center
05:44PM 34.9097 -102.8175 293° West 418 481 38,000  Level Albuquerque Center
05:45PM 34.9542 -102.9500 292° West 418 481 38,000  Level Albuquerque Center
05:46PM 35.0014 -103.0814 294° West 420 483 38,000  Level Albuquerque Center
05:47PM 35.0478 -103.2147 293° West 422 486 38,000  Level Albuquerque Center
05:48PM 35.0942 -103.3483 293° West 424 488 38,000  Level Albuquerque Center
05:49PM 35.1394 -103.4822 292° West 425 489 38,000  Level Albuquerque Center
05:50PM 35.1867 -103.6158 293° West 425 489 38,000  Level Albuquerque Center
05:52PM 35.2394 -103.7719 293° West 423 487 38,000  Level Albuquerque Center
05:53PM 35.2850 -103.9047 293° West 423 487 38,000  Level Albuquerque Center
05:54PM 35.3286 -104.0336 293° West 424 488 38,000  Level Albuquerque Center
05:55PM 35.3750 -104.1681 293° West 422 486 38,000  Level Albuquerque Center
05:56PM 35.4181 -104.3006 292° West 422 486 38,000  Level Albuquerque Center
05:57PM 35.4678 -104.4544 292° West 418 481 38,000  Level Albuquerque Center
05:58PM 35.5119 -104.5883 292° West 420 483 38,000  Level Albuquerque Center
05:59PM 35.5575 -104.7236 293° West 424 488 38,000  Level Albuquerque Center
06:00PM 35.6011 -104.8597 292° West 425 489 38,000  Level Albuquerque Center
06:01PM 35.6453 -104.9958 292° West 426 490 38,000  Level Albuquerque Center
06:07PM 35.9010 -105.7850 292° West 415 478 38,000  Level FlightAware
06:07PM 35.9200 -105.8420 292° West 416 479 38,000  Level FlightAware
06:08PM 35.9480 -105.9350 290° West 416 479 38,000  Level FlightAware
06:09PM 35.9830 -106.0430 292° West 415 478 38,000  Level FlightAware
06:09PM 36.0150 -106.1440 291° West 416 479 38,000  Level FlightAware
06:10PM 36.0490 -106.2540 291° West 416 479 38,000  Level FlightAware
06:11PM 36.0860 -106.3690 292° West 417 480 38,000  Level FlightAware
06:12PM 36.1070 -106.4390 290° West 417 480 38,000  Level FlightAware
06:12PM 36.1310 -106.5150 291° West 417 480 38,000  Level FlightAware
06:13PM 36.1600 -106.6100 291° West 417 480 38,000  Level FlightAware
06:14PM 36.2030 -106.7520 291° West 420 483 38,000  Level FlightAware
06:15PM 36.2320 -106.8490 290° West 420 483 38,000  Level FlightAware
06:15PM 36.2540 -106.9250 290° West 420 483 38,000  Level FlightAware
06:16PM 36.2770 -107.0020 290° West 420 483 38,000  Level FlightAware
06:17PM 36.2990 -107.0790 290° West 420 483 38,000  Level FlightAware
06:17PM 36.3220 -107.1570 290° West 420 483 38,000  Level FlightAware
06:18PM 36.3450 -107.2340 290° West 420 483 38,000  Level FlightAware
06:19PM 36.3730 -107.3300 290° West 420 483 38,000  Level FlightAware
06:20PM 36.3950 -107.4070 290° West 420 483 38,000  Level FlightAware
06:20PM 36.4180 -107.4840 290° West 420 483 38,000  Level FlightAware
06:21PM 36.4410 -107.5610 290° West 420 483 38,000  Level FlightAware
06:22PM 36.4630 -107.6390 289° West 420 483 38,000  Level FlightAware
06:22PM 36.4860 -107.7160 290° West 420 483 38,000  Level FlightAware
06:23PM 36.5770 -107.9900 293° West 413 475 38,000  Level FlightAware
06:25PM 36.6430 -108.2140 290° West 412 474 38,000  Level FlightAware
06:25PM 36.6690 -108.3030 290° West 412 474 38,000  Level FlightAware
06:27PM 36.7220 -108.4870 290° West 409 471 38,000  Level FlightAware
06:28PM 36.7480 -108.5760 290° West 409 471 38,000  Level FlightAware
06:28PM 36.7740 -108.6700 289° West 409 471 38,000  Level FlightAware
06:29PM 36.8010 -108.7640 290° West 408 470 38,000  Level FlightAware
06:30PM 36.8260 -108.8520 290° West 408 470 38,000  Level FlightAware
06:31PM 36.8640 -108.9840 290° West 410 472 38,000  Level FlightAware
06:31PM 36.8840 -109.0560 289° West 410 472 38,000  Level FlightAware
06:32PM 36.9050 -109.1320 289° West 410 472 38,000  Level FlightAware
06:33PM 36.9410 -109.2540 290° West 412 474 38,000  Level FlightAware
06:34PM 36.9740 -109.3750 289° West 414 476 38,000  Level FlightAware
06:34PM 36.9990 -109.4660 289° West 414 476 38,000  Level FlightAware
06:35PM 37.0210 -109.5430 290° West 414 476 38,000  Level FlightAware
06:36PM 37.0470 -109.6390 289° West 414 476 38,000  Level FlightAware
06:36PM 37.0680 -109.7160 289° West 414 476 38,000  Level FlightAware
06:37PM 37.0890 -109.7930 289° West 414 476 38,000  Level FlightAware
06:38PM 37.1110 -109.8710 289° West 414 476 38,000  Level FlightAware
06:38PM 37.1320 -109.9480 289° West 414 476 38,000  Level FlightAware
06:39PM 37.1580 -110.0440 289° West 414 476 38,000  Level FlightAware
06:40PM 37.1800 -110.1220 290° West 414 476 38,000  Level FlightAware
06:41PM 37.2010 -110.1990 289° West 414 476 38,000  Level FlightAware
06:41PM 37.2220 -110.2760 289° West 414 476 38,000  Level FlightAware
06:42PM 37.2430 -110.3540 289° West 414 476 38,000  Level FlightAware
06:43PM 37.2700 -110.4500 289° West 414 476 38,000  Level FlightAware
06:43PM 37.2910 -110.5280 289° West 414 476 38,000  Level FlightAware
06:44PM 37.3717 -110.8378 289° West 418 481 38,000  Level Salt Lake Center
06:45PM 37.4081 -110.9719 289° West 412 474 38,000  Level Denver Center
06:46PM 37.4444 -111.1100 288° West 413 475 38,000  Level Denver Center
06:47PM 37.4833 -111.2461 290° West 416 479 38,000  Level Denver Center
06:48PM 37.5261 -111.4114 288° West 415 478 38,000  Level Denver Center
06:49PM 37.5617 -111.5503 288° West 417 480 38,000  Level Denver Center
06:51PM 37.5967 -111.6889 288° West 417 480 38,000  Level Denver Center
06:51PM 37.6306 -111.8297 287° West 420 483 38,000  Level Salt Lake Center
06:53PM 37.6672 -111.9708 288° West 424 488 38,000  Level Salt Lake Center
06:54PM 37.7094 -112.1389 288° West 422 486 38,000  Level Salt Lake Center
06:55PM 37.7444 -112.2781 288° West 419 482 38,000  Level Salt Lake Center
06:56PM 37.7794 -112.4136 288° West 413 475 38,000  Level Salt Lake Center
06:57PM 37.8122 -112.5517 287° West 413 475 38,000  Level Salt Lake Center
06:58PM 37.8469 -112.6881 288° West 413 475 38,000  Level Salt Lake Center
06:59PM 37.8867 -112.8525 287° West 414 476 38,000  Level Salt Lake Center
07:00PM 37.9200 -112.9900 287° West 414 476 38,000  Level Salt Lake Center
07:01PM 37.9525 -113.1269 287° West 410 472 38,000  Level Salt Lake Center
07:02PM 37.9850 -113.2631 287° West 408 470 38,000  Level Salt Lake Center
07:03PM 38.0175 -113.4014 287° West 411 473 38,000  Level Salt Lake Center
07:04PM 38.0506 -113.5381 287° West 408 470 38,000  Level Salt Lake Center
07:09PM 38.1630 -114.3240 287° West 410 472 38,000  Level FlightAware
07:10PM 38.1600 -114.4410 268° West 410 472 38,000  Level FlightAware
07:11PM 38.1580 -114.5230 268° West 410 472 38,000  Level FlightAware
07:11PM 38.1560 -114.6050 268° West 410 472 38,000  Level FlightAware
07:12PM 38.1530 -114.6870 267° West 410 472 38,000  Level FlightAware
07:13PM 38.1510 -114.7690 268° West 410 472 38,000  Level FlightAware
07:14PM 38.1480 -114.8710 268° West 410 472 38,000  Level FlightAware
07:14PM 38.1390 -115.0420 266° West 413 475 38,000  Level FlightAware
07:15PM 38.1340 -115.1470 267° West 413 475 38,000  Level FlightAware
07:16PM 38.1310 -115.2290 267° West 413 475 38,000  Level FlightAware
07:16PM 38.1280 -115.3120 267° West 413 475 38,000  Level FlightAware
07:17PM 38.1240 -115.3940 266° West 413 475 38,000  Level FlightAware
07:18PM 38.1200 -115.4970 267° West 413 475 38,000  Level FlightAware
07:18PM 38.1170 -115.5800 267° West 413 475 38,000  Level FlightAware
07:19PM 38.1130 -115.6620 266° West 413 475 38,000  Level FlightAware
07:20PM 38.1100 -115.7440 267° West 413 475 38,000  Level FlightAware
07:20PM 38.1060 -115.8270 267° West 413 475 38,000  Level FlightAware
07:21PM 38.1020 -115.9300 267° West 413 475 38,000  Level FlightAware
07:22PM 38.0990 -116.0120 267° West 413 475 38,000  Level FlightAware
07:23PM 38.0950 -116.0950 267° West 413 475 38,000  Level FlightAware
07:23PM 38.0920 -116.1770 267° West 413 475 38,000  Level FlightAware
07:24PM 38.0890 -116.2600 267° West 413 475 38,000  Level FlightAware
07:24PM 38.0756 -116.4619 267° West 390 449 38,000  Level Salt Lake Center
07:25PM 38.0683 -116.6006 266° West 394 453 38,000  Level Salt Lake Center
07:27PM 38.0614 -116.7389 266° West 394 453 38,000  Level Salt Lake Center
07:28PM 38.0539 -116.8797 266° West 398 458 38,000  Level Salt Lake Center
07:28PM 38.0508 -116.9358 266° West 397 457 38,000  Level Oakland Center
07:29PM 38.0436 -117.0756 266° West 394 453 38,000  Level Oakland Center
07:30PM 38.0389 -117.1594 266° West 389 448 38,000  Level Salt Lake Center
07:30PM 38.0347 -117.2161 265° West 390 449 38,000  Level Oakland Center
07:31PM 38.0272 -117.3567 266° West 392 451 38,000  Level Oakland Center
07:32PM 38.0192 -117.4936 266° West 387 445 38,000  Level Oakland Center
07:33PM 38.0103 -117.6556 266° West 383 441 38,000  Level Oakland Center
07:34PM 38.0011 -117.7928 265° West 388 447 38,000  Level Oakland Center
07:35PM 37.9867 -117.9275 262° West 387 445 38,000  Level Oakland Center
07:41PM 37.9040 -118.6870 262° West 376 433 38,000  Level FlightAware
07:41PM 37.8950 -118.7640 262° West 376 433 38,000  Level FlightAware
07:42PM 37.8830 -118.8560 261° West 376 433 38,000  Level FlightAware
07:43PM 37.8740 -118.9300 261° West 376 433 38,000  Level FlightAware
07:44PM 37.8620 -119.0600 263° West 385 443 38,000  Level FlightAware
07:44PM 37.8510 -119.1590 262° West 382 440 38,000  Level FlightAware
07:45PM 37.8400 -119.2480 261° West 385 443 38,000  Level FlightAware
07:46PM 37.8300 -119.3340 262° West 382 440 38,000 -360 Level FlightAware
07:47PM 37.8150 -119.4600 261° West 380 437 37,400 -780 Descending FlightAware
07:47PM 37.8040 -119.5540 262° West 383 441 36,700 -1,020 Descending FlightAware
07:48PM 37.7920 -119.6520 261° West 387 445 36,000 -1,020 Descending FlightAware
07:49PM 37.7810 -119.7460 262° West 391 450 35,300 -1,020 Descending FlightAware
07:49PM 37.7700 -119.8350 261° West 392 451 34,700 -960 Descending FlightAware
07:50PM 37.7580 -119.9380 262° West 394 453 34,000 -540 Descending FlightAware
07:51PM 37.7460 -120.0300 261° West 394 453 34,000 -180 Level FlightAware
07:52PM 37.7340 -120.1300 261° West 390 449 33,800 -660 Descending FlightAware
07:52PM 37.7230 -120.2180 261° West 387 445 33,100 -1,080 Descending FlightAware
07:53PM 37.7110 -120.3080 260° West 390 449 32,400 -1,860 Descending FlightAware
07:54PM 37.6980 -120.4120 261° West 386 444 30,500 -2,400 Descending FlightAware
07:54PM 37.6870 -120.5000 261° West 377 434 29,000 -2,160 Descending FlightAware
07:55PM 37.6750 -120.5920 261° West 366 421 27,500 -2,100 Descending FlightAware
07:56PM 37.6640 -120.6760 261° West 356 410 26,100 -2,160 Descending FlightAware
07:57PM 37.6520 -120.7670 261° West 345 397 24,500 -2,100 Descending FlightAware
07:57PM 37.6420 -120.8460 261° West 340 391 23,200 -1,920 Descending FlightAware
07:58PM 37.6310 -120.9320 261° West 339 390 21,800 -1,980 Descending FlightAware
07:59PM 37.6210 -121.0100 261° West 332 382 20,400 -1,980 Descending FlightAware
07:59PM 37.6130 -121.0870 263° West 332 382 19,200 -1,920 Descending FlightAware
08:00PM 37.6030 -121.1730 262° West 325 374 17,700 -1,980 Descending FlightAware
08:01PM 37.5940 -121.2490 262° West 325 374 16,400 -1,980 Descending FlightAware
08:01PM 37.5820 -121.3310 260° West 324 373 14,900 -1,920 Descending FlightAware
08:02PM 37.5690 -121.4040 257° West 321 369 13,700 -1,920 Descending FlightAware
08:03PM 37.5550 -121.4780 257° West 318 366 12,400 -1,860 Descending FlightAware
08:04PM 37.5410 -121.5570 257° West 315 362 11,100 -1,140 Descending FlightAware
08:04PM 37.5290 -121.6250 257° West 287 330 10,800 -1,020 Descending FlightAware
08:05PM 37.5160 -121.6950 257° West 275 316 9,700 -1,500 Descending FlightAware
08:05PM 37.5090 -121.7340 257° West 272 313 9,100 -1,320 Descending FlightAware
08:06PM 37.5000 -121.7800 256° West 262 302 8,500 -1,020 Descending FlightAware
08:06PM 37.4930 -121.8170 257° West 254 292 8,200 -600 Descending FlightAware
08:07PM 37.4860 -121.8580 258° West 233 268 8,000 -600 Descending FlightAware
08:07PM 37.4870 -121.9060 272° West 220 253 7,500 -960 Descending FlightAware
08:08PM 37.4950 -121.9430 285° West 211 243 6,900 -1,200 Descending FlightAware
08:08PM 37.5020 -121.9780 284° West 213 245 6,300 -1,200 Descending FlightAware
08:09PM 37.5090 -122.0100 285° West 213 245 5,800 -1,320 Descending FlightAware
08:09PM 37.5180 -122.0400 291° West 212 244 5,200 -1,320 Descending FlightAware
08:10PM 37.5290 -122.0740 292° West 207 238 4,600 -1,200 Descending FlightAware
08:10PM 37.5390 -122.1070 291° West 202 232 4,000 -1,200 Descending FlightAware
08:11PM 37.5480 -122.1360 291° West 201 231 3,500 -1,140 Descending FlightAware
08:11PM 37.5570 -122.1660 291° West 182 209 3,000 -1,080 Descending FlightAware
08:11PM 37.5610 -122.1800 290° West 173 199 2,700 -1,080 Descending FlightAware
08:12PM 37.5680 -122.2030 291° West 153 176 2,300 -1,020 Descending FlightAware
08:12PM 37.5760 -122.2270 293° West 143 165 1,800 -780 Descending FlightAware
08:13PM 37.5800 -122.2470 284° West 147 169 1,600 -480 Descending FlightAware
08:13PM 37.5840 -122.2720 281° West 140 161 1,400 -600 Descending FlightAware
08:14PM 37.5880 -122.2910 285° West 135 155 1,100 -720 Descending FlightAware
08:14PM 37.5960 -122.3160 292° West 136 157 700 -720 Descending FlightAware
08:15PM 37.6040 -122.3340 299° West 136 157 400 -720 Descending FlightAware
08:15PM 37.6130 -122.3560 297° West 142 163 -840 Descending FlightAware